Time;durP1;ratioP1;P1;durP2;ratioP2;P2;SDS_P1;SDS_P2;PMS_P1;PMS_P2;Temp;Humidity;BMP_temperature;BMP_pressure;BME280_temperature;BME280_humidity;BME280_pressure;Samples;Min_cycle;Max_cycle;Signal;HPM_P1;HPM_P2
2022/03/15 00:02:16;;;;;;;18.70;17.00;;;;;;;;;;12542077;28;20045;-79
2022/03/15 00:08:19;;;;;;;21.08;19.08;;;;;;;;;;12525772;28;20044;-79
2022/03/15 00:14:21;;;;;;;;;;;;;;;;;;12543750;28;20053;-78
2022/03/15 00:20:23;;;;;;;17.85;16.15;;;;;;;;;;12542872;28;19917;-78
2022/03/15 00:26:25;;;;;;;18.33;16.65;;;;;;;;;;12541382;28;20029;-78
2022/03/15 00:32:27;;;;;;;22.27;20.27;;;;;;;;;;12541293;28;20048;-79
2022/03/15 00:38:29;;;;;;;18.98;17.33;;;;;;;;;;12526739;28;20028;-79
2022/03/15 00:44:31;;;;;;;19.58;17.70;;;;;;;;;;12543072;28;20036;-78
2022/03/15 00:50:33;;;;;;;18.92;17.15;;;;;;;;;;12546919;28;20048;-78
2022/03/15 00:56:34;;;;;;;18.20;16.50;;;;;;;;;;12549885;28;20029;-78
2022/03/15 01:02:36;;;;;;;21.07;19.27;;;;;;;;;;12550894;28;20041;-79
2022/03/15 01:08:41;;;;;;;19.52;17.73;;;;;;;;;;12549582;28;20090;-79
2022/03/15 01:14:43;;;;;;;19.48;17.52;;;;;;;;;;12550618;28;20064;-79
2022/03/15 01:20:47;;;;;;;20.42;18.50;;;;;;;;;;12535736;28;20049;-77
2022/03/15 01:26:53;;;;;;;16.43;14.93;;;;;;;;;;12549358;28;20515;-78
2022/03/15 01:32:55;;;;;;;19.77;17.88;;;;;;;;;;12548173;28;20039;-80
2022/03/15 01:38:57;;;;;;;23.27;21.17;;;;;;;;;;12549401;28;20041;-80
2022/03/15 01:45:05;;;;;;;22.63;20.52;;;;;;;;;;12547553;28;20060;-80
2022/03/15 01:51:09;;;;;;;21.33;19.52;;;;;;;;;;12547649;28;20393;-80
2022/03/15 01:57:11;;;;;;;20.23;18.40;;;;;;;;;;12558267;28;20041;-80
2022/03/15 02:03:15;;;;;;;18.95;17.27;;;;;;;;;;12547535;28;20515;-80
2022/03/15 02:09:17;;;;;;;20.05;18.25;;;;;;;;;;12547003;28;20029;-80
2022/03/15 02:15:18;;;;;;;19.45;17.75;;;;;;;;;;12548950;28;20068;-80
2022/03/15 02:21:20;;;;;;;19.77;18.08;;;;;;;;;;12529198;28;20037;-80
2022/03/15 02:27:23;;;;;;;21.38;19.48;;;;;;;;;;12546995;28;20029;-80
2022/03/15 02:33:25;;;;;;;20.13;18.27;;;;;;;;;;12545750;28;20037;-79
2022/03/15 02:39:27;;;;;;;21.23;19.23;;;;;;;;;;12545284;28;20049;-78
2022/03/15 02:45:29;;;;;;;19.00;17.30;;;;;;;;;;12546477;28;20033;-79
2022/03/15 02:51:31;;;;;;;17.90;16.35;;;;;;;;;;12544543;28;20052;-78
2022/03/15 02:57:33;;;;;;;20.20;18.40;;;;;;;;;;12527799;28;20068;-79
2022/03/15 03:03:35;;;;;;;21.45;19.65;;;;;;;;;;12545378;28;20351;-80
2022/03/15 03:09:37;;;;;;;17.92;16.40;;;;;;;;;;12544930;28;20033;-80
2022/03/15 03:15:38;;;;;;;21.55;19.65;;;;;;;;;;12536563;28;20049;-78
2022/03/15 03:21:40;;;;;;;20.20;18.40;;;;;;;;;;12544475;28;20049;-78
2022/03/15 03:27:42;;;;;;;20.52;18.73;;;;;;;;;;12527165;28;20033;-79
2022/03/15 03:33:44;;;;;;;23.35;21.25;;;;;;;;;;12543246;28;20037;-80
2022/03/15 03:39:46;;;;;;;17.93;16.40;;;;;;;;;;12545276;28;20055;-80
2022/03/15 03:45:48;;;;;;;21.25;19.55;;;;;;;;;;12550536;28;20523;-79
2022/03/15 03:51:50;;;;;;;20.20;18.45;;;;;;;;;;12544587;28;20035;-79
2022/03/15 03:57:52;;;;;;;17.92;16.30;;;;;;;;;;12543332;28;20404;-80
2022/03/15 04:03:53;;;;;;;25.02;22.63;;;;;;;;;;12543803;28;20520;-80
2022/03/15 04:09:55;;;;;;;24.50;22.38;;;;;;;;;;12542106;28;20509;-80
2022/03/15 04:15:57;;;;;;;21.30;19.50;;;;;;;;;;12544407;28;20049;-80
2022/03/15 04:21:59;;;;;;;24.70;22.40;;;;;;;;;;12542866;28;20045;-80
2022/03/15 04:28:02;;;;;;;23.42;21.25;;;;;;;;;;12531675;28;20032;-80
2022/03/15 04:34:03;;;;;;;31.08;28.17;;;;;;;;;;12563324;28;20417;-79
2022/03/15 04:40:07;;;;;;;24.60;22.38;;;;;;;;;;12552555;28;20040;-79
2022/03/15 04:46:09;;;;;;;25.35;23.02;;;;;;;;;;12552549;28;20095;-80
2022/03/15 04:52:10;;;;;;;19.98;18.25;;;;;;;;;;12551460;28;20033;-80
2022/03/15 04:58:12;;;;;;;24.23;22.05;;;;;;;;;;12533337;28;20041;-80
2022/03/15 05:04:14;;;;;;;21.92;20.02;;;;;;;;;;12552123;28;20056;-78
2022/03/15 05:16:36;;;;;;;20.50;18.60;;;;;;;;;;12549111;28;20053;-79
2022/03/15 05:22:37;;;;;;;18.48;16.80;;;;;;;;;;12548829;28;20049;-79
2022/03/15 05:28:39;;;;;;;19.40;17.58;;;;;;;;;;12548439;28;20382;-79
2022/03/15 05:34:41;;;;;;;18.63;16.95;;;;;;;;;;12548157;28;20203;-80
2022/03/15 05:40:43;;;;;;;17.23;15.63;;;;;;;;;;12554098;28;20485;-80
2022/03/15 05:46:45;;;;;;;20.70;18.73;;;;;;;;;;12556999;28;20048;-79
2022/03/15 05:52:47;;;;;;;19.00;17.27;;;;;;;;;;12550404;28;20025;-79
2022/03/15 05:58:49;;;;;;;37.80;33.88;;;;;;;;;;12548617;28;20037;-79
2022/03/15 06:04:50;;;;;;;35.40;31.98;;;;;;;;;;12548517;28;20047;-79
2022/03/15 06:10:52;;;;;;;24.40;22.20;;;;;;;;;;12547884;28;20033;-79
2022/03/15 06:16:54;;;;;;;21.15;19.25;;;;;;;;;;12545999;28;20065;-79
2022/03/15 06:22:55;;;;;;;20.13;18.33;;;;;;;;;;12547233;28;20044;-79
2022/03/15 06:29:02;;;;;;;19.35;17.63;;;;;;;;;;12545556;28;20037;-78
2022/03/15 06:35:07;;;;;;;23.33;21.02;;;;;;;;;;12541535;28;20045;-79
2022/03/15 06:41:12;;;;;;;15.68;14.25;;;;;;;;;;12513315;28;20045;-80
2022/03/15 06:47:14;;;;;;;25.73;23.15;;;;;;;;;;12530411;28;20048;-80
2022/03/15 06:53:15;;;;;;;23.92;21.65;;;;;;;;;;12538429;28;20069;-80
2022/03/15 06:59:17;;;;;;;27.20;24.70;;;;;;;;;;12525092;28;20052;-80
2022/03/15 07:05:19;;;;;;;20.67;18.67;;;;;;;;;;12524862;28;20041;-80
2022/03/15 07:11:20;;;;;;;25.02;22.63;;;;;;;;;;12515486;28;20398;-79
2022/03/15 07:17:22;;;;;;;27.90;25.30;;;;;;;;;;12501433;28;20068;-79
2022/03/15 07:23:25;;;;;;;33.17;30.15;;;;;;;;;;12529912;28;20049;-79
2022/03/15 07:29:27;;;;;;;28.50;25.73;;;;;;;;;;12523412;28;20064;-78
2022/03/15 07:35:30;;;;;;;;;;;;;;;;;;12514944;28;20025;-79
2022/03/15 07:41:37;;;;;;;35.97;32.50;;;;;;;;;;12528901;28;19952;-79
2022/03/15 07:47:39;;;;;;;32.63;29.52;;;;;;;;;;12509265;28;20271;-79
2022/03/15 07:53:41;;;;;;;27.00;24.52;;;;;;;;;;12528455;28;20474;-80
2022/03/15 07:59:42;;;;;;;28.98;26.17;;;;;;;;;;12510501;28;20389;-80
2022/03/15 08:05:44;;;;;;;27.08;24.58;;;;;;;;;;12519511;28;20025;-79
2022/03/15 08:11:46;;;;;;;29.47;26.73;;;;;;;;;;12525913;28;20517;-79
2022/03/15 08:17:48;;;;;;;26.90;24.27;;;;;;;;;;12523877;28;20060;-79
2022/03/15 08:23:50;;;;;;;27.95;25.30;;;;;;;;;;12509980;28;20048;-79
2022/03/15 08:29:52;;;;;;;23.55;21.35;;;;;;;;;;12521660;28;20037;-80
2022/03/15 08:35:53;;;;;;;31.23;28.33;;;;;;;;;;12510337;28;20037;-79
2022/03/15 08:41:55;;;;;;;28.75;26.05;;;;;;;;;;12524397;28;20045;-81
2022/03/15 08:47:57;;;;;;;27.17;24.38;;;;;;;;;;12516992;28;20060;-80
2022/03/15 08:54:00;;;;;;;25.90;23.35;;;;;;;;;;12514837;28;20029;-80
2022/03/15 09:00:02;;;;;;;31.13;28.25;;;;;;;;;;12520300;28;20501;-81
2022/03/15 09:06:05;;;;;;;28.52;25.17;;;;;;;;;;12518530;28;20040;-79
2022/03/15 09:12:07;;;;;;;26.23;23.73;;;;;;;;;;12523883;28;20033;-80
2022/03/15 09:18:09;;;;;;;28.05;25.30;;;;;;;;;;12512482;28;20497;-79
2022/03/15 09:24:11;;;;;;;25.13;22.77;;;;;;;;;;12513563;28;20044;-79
2022/03/15 09:30:13;;;;;;;23.00;20.70;;;;;;;;;;12516271;28;20709;-81
2022/03/15 09:36:15;;;;;;;21.80;19.60;;;;;;;;;;12519378;28;20033;-80
2022/03/15 09:42:19;;;;;;;17.20;15.50;;;;;;;;;;12511373;28;20054;-79
2022/03/15 09:48:22;;;;;;;16.58;14.30;;;;;;;;;;12522686;28;20292;-80
2022/03/15 09:54:25;;;;;;;11.60;10.50;;;;;;;;;;12491779;28;20040;-78
2022/03/15 10:00:26;;;;;;;15.40;13.80;;;;;;;;;;12527286;28;20048;-79
2022/03/15 10:06:28;;;;;;;15.50;14.20;;;;;;;;;;12512368;28;20381;-79
2022/03/15 10:12:30;;;;;;;11.52;10.45;;;;;;;;;;12528842;28;20025;-79
2022/03/15 10:18:32;;;;;;;13.50;12.25;;;;;;;;;;12515254;28;20057;-80
2022/03/15 10:24:38;;;;;;;11.27;10.17;;;;;;;;;;12524039;28;20040;-79
2022/03/15 10:30:40;;;;;;;12.45;11.25;;;;;;;;;;12504558;28;20033;-80
2022/03/15 10:36:44;;;;;;;13.65;12.25;;;;;;;;;;12499410;28;20033;-79
2022/03/15 10:42:47;;;;;;;10.65;9.70;;;;;;;;;;12514552;28;20045;-79
2022/03/15 10:48:53;;;;;;;10.68;9.68;;;;;;;;;;12509348;28;20040;-80
2022/03/15 10:54:54;;;;;;;12.65;11.48;;;;;;;;;;12506193;28;20024;-79
2022/03/15 11:00:57;;;;;;;9.50;8.48;;;;;;;;;;12529619;28;20056;-78
2022/03/15 11:06:59;;;;;;;6.77;6.13;;;;;;;;;;12507485;28;20029;-77
2022/03/15 11:13:13;;;;;;;11.80;10.60;;;;;;;;;;12505670;28;20538;-79
2022/03/15 11:19:15;;;;;;;9.70;8.77;;;;;;;;;;12505992;28;20045;-78
2022/03/15 11:25:18;;;;;;;8.68;7.78;;;;;;;;;;12513507;28;20541;-78
2022/03/15 11:31:20;;;;;;;8.05;7.28;;;;;;;;;;12509243;28;20466;-77
2022/03/15 11:37:23;;;;;;;;;;;;;;;;;;12500426;28;20029;-78
2022/03/15 11:43:43;;;;;;;8.10;7.30;;;;;;;;;;12509271;28;19937;-78
2022/03/15 11:49:45;;;;;;;9.05;8.15;;;;;;;;;;12500199;28;20021;-79
2022/03/15 11:56:06;;;;;;;8.27;7.53;;;;;;;;;;12487726;28;20521;-78
2022/03/15 12:02:07;;;;;;;5.43;4.93;;;;;;;;;;12511797;28;20049;-79
2022/03/15 12:08:12;;;;;;;7.30;6.60;;;;;;;;;;12504441;28;20025;-81
2022/03/15 12:14:19;;;;;;;20.17;11.85;;;;;;;;;;12521355;28;20061;-80
2022/03/15 12:20:21;;;;;;;13.05;11.70;;;;;;;;;;12507680;28;20088;-80
2022/03/15 12:26:24;;;;;;;10.27;9.20;;;;;;;;;;12490725;28;20040;-78
2022/03/15 12:32:27;;;;;;;9.75;8.85;;;;;;;;;;12491362;28;20036;-78
2022/03/15 12:38:33;;;;;;;11.32;10.18;;;;;;;;;;12491077;28;20063;-78
2022/03/15 12:44:41;;;;;;;10.70;9.70;;;;;;;;;;12493215;28;20041;-79
2022/03/15 12:50:43;;;;;;;9.60;8.70;;;;;;;;;;12499773;28;20029;-78
2022/03/15 12:56:47;;;;;;;8.82;7.22;;;;;;;;;;12500378;28;20045;-79
2022/03/15 13:02:51;;;;;;;9.07;8.13;;;;;;;;;;12501546;28;20046;-80
2022/03/15 13:08:56;;;;;;;8.70;7.93;;;;;;;;;;12501584;28;20045;-80
2022/03/15 13:14:59;;;;;;;11.10;9.93;;;;;;;;;;12512591;28;20041;-79
2022/03/15 13:21:01;;;;;;;;;;;;;;;;;;12499578;28;20061;-80
2022/03/15 13:27:04;;;;;;;8.45;7.65;;;;;;;;;;12500895;28;19909;-80
2022/03/15 13:33:05;;;;;;;14.52;13.07;;;;;;;;;;12500203;28;20508;-78
2022/03/15 13:39:08;;;;;;;13.57;12.27;;;;;;;;;;12499894;28;20041;-78
2022/03/15 13:45:12;;;;;;;15.15;13.55;;;;;;;;;;12500986;28;20470;-79
2022/03/15 13:51:22;;;;;;;15.15;13.35;;;;;;;;;;12510535;28;20044;-78
2022/03/15 13:57:34;;;;;;;19.42;17.27;;;;;;;;;;12497087;28;20036;-79
2022/03/15 14:03:37;;;;;;;18.73;16.80;;;;;;;;;;12498540;28;20037;-79
2022/03/15 14:09:39;;;;;;;;;;;;;;;;;;12498413;28;20033;-77
2022/03/15 14:15:41;;;;;;;15.98;14.38;;;;;;;;;;12497692;28;19921;-78
2022/03/15 14:21:44;;;;;;;9.70;8.80;;;;;;;;;;12497741;28;20041;-78
2022/03/15 14:27:45;;;;;;;;;;;;;;;;;;12497651;28;20029;-79
2022/03/15 14:33:56;;;;;;;12.32;11.02;;;;;;;;;;12498061;28;19932;-79
2022/03/15 14:40:17;;;;;;;12.60;11.30;;;;;;;;;;12497487;28;20037;-78
2022/03/15 14:46:19;;;;;;;11.60;10.48;;;;;;;;;;12504381;28;20034;-79
2022/03/15 14:52:21;;;;;;;16.70;15.02;;;;;;;;;;12495139;28;20029;-78
2022/03/15 14:58:23;;;;;;;13.13;11.82;;;;;;;;;;12496173;28;20474;-79
2022/03/15 15:04:25;;;;;;;15.85;14.32;;;;;;;;;;12495490;28;20045;-79
2022/03/15 15:10:27;;;;;;;19.13;16.45;;;;;;;;;;12493121;28;20048;-79
2022/03/15 15:16:29;;;;;;;19.50;17.60;;;;;;;;;;12494079;28;20072;-79
2022/03/15 15:22:31;;;;;;;17.30;15.60;;;;;;;;;;12493883;28;20045;-79
2022/03/15 15:28:34;;;;;;;16.80;15.05;;;;;;;;;;12495092;28;20473;-79
2022/03/15 15:34:35;;;;;;;;;;;;;;;;;;12494646;28;20029;-79
2022/03/15 15:40:40;;;;;;;14.18;12.75;;;;;;;;;;12500928;28;20381;-79
2022/03/15 15:46:45;;;;;;;15.32;13.82;;;;;;;;;;12493707;28;20037;-79
2022/03/15 15:52:48;;;;;;;14.43;12.98;;;;;;;;;;12493288;28;20041;-79
2022/03/15 15:58:49;;;;;;;14.65;13.15;;;;;;;;;;12501632;28;20034;-77
2022/03/15 16:04:51;;;;;;;14.38;12.98;;;;;;;;;;12495029;28;20049;-77
2022/03/15 16:10:53;;;;;;;14.95;13.45;;;;;;;;;;12494079;28;20034;-77
2022/03/15 16:16:55;;;;;;;16.63;15.03;;;;;;;;;;12492858;28;20065;-77
2022/03/15 16:23:00;;;;;;;13.73;12.23;;;;;;;;;;12508618;28;20048;-76
2022/03/15 16:29:02;;;;;;;10.27;9.23;;;;;;;;;;12502118;28;20095;-77
2022/03/15 16:35:04;;;;;;;10.40;9.40;;;;;;;;;;12503063;28;20041;-79
2022/03/15 16:41:06;;;;;;;8.47;7.67;;;;;;;;;;12502756;28;20397;-79
2022/03/15 16:47:08;;;;;;;8.70;7.80;;;;;;;;;;12503541;28;20072;-76
2022/03/15 16:53:11;;;;;;;6.57;5.97;;;;;;;;;;12501270;28;20041;-77
2022/03/15 16:59:12;;;;;;;6.68;6.03;;;;;;;;;;12500661;28;20037;-78
2022/03/15 17:11:38;;;;;;;7.20;6.53;;;;;;;;;;12501229;28;20034;-78
2022/03/15 17:17:43;;;;;;;6.97;6.38;;;;;;;;;;12500133;28;20057;-79
2022/03/15 17:23:48;;;;;;;7.05;6.40;;;;;;;;;;12500096;28;20045;-78
2022/03/15 17:29:51;;;;;;;4.65;4.25;;;;;;;;;;12499121;28;20402;-79
2022/03/15 17:35:53;;;;;;;6.75;6.15;;;;;;;;;;12481394;28;20044;-80
2022/03/15 17:41:58;;;;;;;7.57;6.32;;;;;;;;;;12498933;28;20048;-78
2022/03/15 17:48:03;;;;;;;6.40;5.57;;;;;;;;;;12501508;28;20033;-79
2022/03/15 17:54:07;;;;;;;7.20;6.50;;;;;;;;;;12509724;28;20037;-76
2022/03/15 18:00:10;;;;;;;13.95;10.40;;;;;;;;;;12498181;28;20379;-75
2022/03/15 18:06:14;;;;;;;10.88;9.82;;;;;;;;;;12499131;28;20041;-75
2022/03/15 18:12:17;;;;;;;8.57;7.68;;;;;;;;;;12493912;28;20478;-79
2022/03/15 18:18:22;;;;;;;8.02;7.22;;;;;;;;;;12498415;28;20062;-79
2022/03/15 18:24:24;;;;;;;9.98;8.02;;;;;;;;;;12496225;28;20037;-77
2022/03/15 18:30:26;;;;;;;9.00;8.18;;;;;;;;;;12496280;28;20033;-76
2022/03/15 18:36:28;;;;;;;10.20;9.20;;;;;;;;;;12508331;28;20567;-76
2022/03/15 18:42:32;;;;;;;10.73;9.73;;;;;;;;;;12495496;28;20060;-76
2022/03/15 18:48:34;;;;;;;9.52;8.50;;;;;;;;;;12495901;28;20033;-76
2022/03/15 18:54:36;;;;;;;11.30;9.98;;;;;;;;;;12494823;28;20033;-75
2022/03/15 19:00:38;;;;;;;11.77;10.27;;;;;;;;;;12494301;28;20057;-76
2022/03/15 19:06:39;;;;;;;10.98;9.80;;;;;;;;;;12495657;28;20038;-75
2022/03/15 19:12:42;;;;;;;11.80;10.63;;;;;;;;;;12477700;28;20038;-76
2022/03/15 19:18:50;;;;;;;9.90;9.00;;;;;;;;;;12495027;28;20052;-76
2022/03/15 19:24:52;;;;;;;10.45;9.45;;;;;;;;;;12501098;28;20041;-79
2022/03/15 19:30:54;;;;;;;12.33;11.07;;;;;;;;;;12493879;28;20040;-77
2022/03/15 19:36:57;;;;;;;13.48;12.07;;;;;;;;;;12494494;28;20033;-79
2022/03/15 19:42:59;;;;;;;11.15;10.18;;;;;;;;;;12495286;28;20057;-79
2022/03/15 19:49:04;;;;;;;13.20;11.90;;;;;;;;;;12494799;28;20478;-79
2022/03/15 19:55:08;;;;;;;14.30;12.80;;;;;;;;;;12493735;28;20497;-79
2022/03/15 20:01:12;;;;;;;16.05;14.52;;;;;;;;;;12486407;28;20056;-80
2022/03/15 20:07:18;;;;;;;17.85;16.02;;;;;;;;;;12504843;28;20033;-80
2022/03/15 20:13:20;;;;;;;15.90;14.43;;;;;;;;;;12502541;28;20045;-78
2022/03/15 20:19:22;;;;;;;18.60;16.70;;;;;;;;;;12486318;28;20045;-79
2022/03/15 20:25:26;;;;;;;18.10;16.15;;;;;;;;;;12503246;28;20506;-80
2022/03/15 20:31:28;;;;;;;17.65;15.75;;;;;;;;;;12512872;28;20045;-77
2022/03/15 20:37:30;;;;;;;19.42;17.52;;;;;;;;;;12510706;28;20401;-76
2022/03/15 20:49:52;;;;;;;19.77;17.70;;;;;;;;;;12502437;28;20029;-76
2022/03/15 20:55:56;;;;;;;20.27;18.17;;;;;;;;;;12502789;28;20037;-76
2022/03/15 21:01:59;;;;;;;20.58;18.40;;;;;;;;;;12510211;28;20053;-76
2022/03/15 21:08:02;;;;;;;18.60;16.60;;;;;;;;;;12501808;28;20025;-76
2022/03/15 21:14:04;;;;;;;17.48;15.73;;;;;;;;;;12500292;28;20060;-76
2022/03/15 21:20:06;;;;;;;18.23;16.43;;;;;;;;;;12499832;28;20029;-77
2022/03/15 21:26:08;;;;;;;24.17;21.17;;;;;;;;;;12499575;28;20038;-75
2022/03/15 21:32:11;;;;;;;21.45;19.25;;;;;;;;;;12499401;28;20038;-75
2022/03/15 21:38:13;;;;;;;18.42;16.23;;;;;;;;;;12500219;28;20041;-76
2022/03/15 21:44:16;;;;;;;21.90;19.52;;;;;;;;;;12500539;28;20046;-76
2022/03/15 21:50:18;;;;;;;27.17;20.38;;;;;;;;;;12482384;28;20049;-76
2022/03/15 21:56:20;;;;;;;22.25;18.92;;;;;;;;;;12509642;28;20037;-75
2022/03/15 22:02:23;;;;;;;19.83;17.85;;;;;;;;;;12498780;28;20041;-76
2022/03/15 22:08:26;;;;;;;20.77;18.48;;;;;;;;;;12499656;28;20034;-77
2022/03/15 22:14:29;;;;;;;18.17;16.27;;;;;;;;;;12499033;28;20068;-76
2022/03/15 22:20:31;;;;;;;13.77;12.45;;;;;;;;;;12497736;28;20033;-76
2022/03/15 22:26:33;;;;;;;18.15;16.30;;;;;;;;;;12497833;28;20029;-76
2022/03/15 23:16:38;;;;;;;17.10;15.48;;;;;;;;;;12496176;28;20061;-76
2022/03/15 23:22:45;;;;;;;15.23;13.85;;;;;;;;;;12495355;28;20048;-76
2022/03/15 23:28:47;;;;;;;17.30;15.65;;;;;;;;;;12494292;28;20118;-77
2022/03/15 23:34:50;;;;;;;16.50;15.00;;;;;;;;;;12494585;28;20037;-77
2022/03/15 23:40:52;;;;;;;18.05;16.25;;;;;;;;;;12494667;28;20050;-77
2022/03/15 23:46:53;;;;;;;14.80;13.40;;;;;;;;;;12493953;28;20033;-77
2022/03/15 23:52:55;;;;;;;18.27;16.45;;;;;;;;;;12493281;28;20044;-76
2022/03/15 23:58:58;;;;;;;20.55;18.55;;;;;;;;;;12494837;28;20034;-77
